sensor_id;sensor_type;location;lat;lon;timestamp;P1;durP1;ratioP1;P2;durP2;ratioP2
72284;SDS011;60220;53.552;10.092;2022-12-20T00:01:13;10.55;;;6.57;;
72284;SDS011;60220;53.552;10.092;2022-12-20T00:03:41;11.13;;;7.03;;
72284;SDS011;60220;53.552;10.092;2022-12-20T00:06:14;10.10;;;6.60;;
72284;SDS011;60220;53.552;10.092;2022-12-20T00:08:40;10.32;;;6.15;;
72284;SDS011;60220;53.552;10.092;2022-12-20T00:11:07;10.45;;;7.10;;
72284;SDS011;60220;53.552;10.092;2022-12-20T00:13:38;15.57;;;7.55;;
72284;SDS011;60220;53.552;10.092;2022-12-20T00:16:09;14.18;;;6.85;;
72284;SDS011;60220;53.552;10.092;2022-12-20T00:18:40;12.02;;;6.30;;
72284;SDS011;60220;53.552;10.092;2022-12-20T00:21:11;9.93;;;6.30;;
72284;SDS011;60220;53.552;10.092;2022-12-20T00:23:41;14.48;;;7.15;;
72284;SDS011;60220;53.552;10.092;2022-12-20T00:26:09;11.65;;;6.47;;
72284;SDS011;60220;53.552;10.092;2022-12-20T00:28:39;12.82;;;6.85;;
72284;SDS011;60220;53.552;10.092;2022-12-20T00:31:07;18.13;;;7.78;;
72284;SDS011;60220;53.552;10.092;2022-12-20T00:33:37;13.60;;;7.78;;
72284;SDS011;60220;53.552;10.092;2022-12-20T00:36:05;12.88;;;6.20;;
72284;SDS011;60220;53.552;10.092;2022-12-20T00:38:37;12.63;;;7.57;;
72284;SDS011;60220;53.552;10.092;2022-12-20T00:41:07;9.45;;;6.22;;
72284;SDS011;60220;53.552;10.092;2022-12-20T00:43:35;13.25;;;7.10;;
72284;SDS011;60220;53.552;10.092;2022-12-20T00:46:04;14.35;;;6.72;;
72284;SDS011;60220;53.552;10.092;2022-12-20T00:48:36;10.27;;;6.85;;
72284;SDS011;60220;53.552;10.092;2022-12-20T00:51:08;16.17;;;7.18;;
72284;SDS011;60220;53.552;10.092;2022-12-20T00:53:36;11.20;;;6.90;;
72284;SDS011;60220;53.552;10.092;2022-12-20T00:56:06;15.05;;;6.82;;
72284;SDS011;60220;53.552;10.092;2022-12-20T00:58:35;13.57;;;7.47;;
72284;SDS011;60220;53.552;10.092;2022-12-20T01:01:05;13.23;;;7.93;;
72284;SDS011;60220;53.552;10.092;2022-12-20T01:03:41;15.13;;;7.07;;
72284;SDS011;60220;53.552;10.092;2022-12-20T01:06:08;10.88;;;6.95;;
72284;SDS011;60220;53.552;10.092;2022-12-20T01:08:36;11.05;;;7.45;;
72284;SDS011;60220;53.552;10.092;2022-12-20T01:11:05;10.45;;;6.70;;
72284;SDS011;60220;53.552;10.092;2022-12-20T01:13:37;11.10;;;6.80;;
72284;SDS011;60220;53.552;10.092;2022-12-20T01:16:09;11.18;;;6.57;;
72284;SDS011;60220;53.552;10.092;2022-12-20T01:18:41;10.68;;;7.03;;
72284;SDS011;60220;53.552;10.092;2022-12-20T01:21:11;13.25;;;7.32;;
72284;SDS011;60220;53.552;10.092;2022-12-20T01:23:40;11.98;;;7.03;;
72284;SDS011;60220;53.552;10.092;2022-12-20T01:26:08;12.95;;;7.10;;
72284;SDS011;60220;53.552;10.092;2022-12-20T01:28:40;17.42;;;7.47;;
72284;SDS011;60220;53.552;10.092;2022-12-20T01:31:13;13.40;;;6.80;;
72284;SDS011;60220;53.552;10.092;2022-12-20T01:33:43;12.70;;;7.35;;
72284;SDS011;60220;53.552;10.092;2022-12-20T01:36:13;11.60;;;6.95;;
72284;SDS011;60220;53.552;10.092;2022-12-20T01:38:42;13.52;;;7.22;;
72284;SDS011;60220;53.552;10.092;2022-12-20T01:41:12;10.88;;;7.25;;
72284;SDS011;60220;53.552;10.092;2022-12-20T01:43:47;13.93;;;7.25;;
72284;SDS011;60220;53.552;10.092;2022-12-20T01:46:23;13.38;;;7.53;;
72284;SDS011;60220;53.552;10.092;2022-12-20T01:48:53;10.70;;;6.85;;
72284;SDS011;60220;53.552;10.092;2022-12-20T01:51:28;12.52;;;6.82;;
72284;SDS011;60220;53.552;10.092;2022-12-20T01:53:59;13.30;;;7.68;;
72284;SDS011;60220;53.552;10.092;2022-12-20T01:56:29;9.98;;;6.75;;
72284;SDS011;60220;53.552;10.092;2022-12-20T01:59:00;11.63;;;6.65;;
72284;SDS011;60220;53.552;10.092;2022-12-20T02:01:28;9.70;;;6.78;;
72284;SDS011;60220;53.552;10.092;2022-12-20T02:03:55;12.60;;;6.55;;
72284;SDS011;60220;53.552;10.092;2022-12-20T02:06:23;9.32;;;6.05;;
72284;SDS011;60220;53.552;10.092;2022-12-20T02:08:58;8.57;;;6.22;;
72284;SDS011;60220;53.552;10.092;2022-12-20T02:11:37;10.32;;;6.32;;
72284;SDS011;60220;53.552;10.092;2022-12-20T02:14:16;11.57;;;6.07;;
72284;SDS011;60220;53.552;10.092;2022-12-20T02:16:59;11.63;;;6.05;;
72284;SDS011;60220;53.552;10.092;2022-12-20T02:19:41;11.07;;;5.63;;
72284;SDS011;60220;53.552;10.092;2022-12-20T02:22:23;9.35;;;6.28;;
72284;SDS011;60220;53.552;10.092;2022-12-20T02:25:02;12.18;;;6.13;;
72284;SDS011;60220;53.552;10.092;2022-12-20T02:27:48;10.02;;;6.07;;
72284;SDS011;60220;53.552;10.092;2022-12-20T02:30:23;11.23;;;6.25;;
72284;SDS011;60220;53.552;10.092;2022-12-20T02:33:01;11.27;;;5.63;;
72284;SDS011;60220;53.552;10.092;2022-12-20T02:35:41;14.00;;;6.18;;
72284;SDS011;60220;53.552;10.092;2022-12-20T02:38:26;11.65;;;6.03;;
72284;SDS011;60220;53.552;10.092;2022-12-20T02:40:56;10.20;;;6.05;;
72284;SDS011;60220;53.552;10.092;2022-12-20T02:43:40;11.40;;;5.50;;
72284;SDS011;60220;53.552;10.092;2022-12-20T02:46:27;11.27;;;6.13;;
72284;SDS011;60220;53.552;10.092;2022-12-20T02:48:57;9.43;;;5.18;;
72284;SDS011;60220;53.552;10.092;2022-12-20T02:51:27;8.98;;;5.55;;
72284;SDS011;60220;53.552;10.092;2022-12-20T02:53:56;10.48;;;6.28;;
72284;SDS011;60220;53.552;10.092;2022-12-20T02:56:25;6.97;;;5.40;;
72284;SDS011;60220;53.552;10.092;2022-12-20T02:58:57;13.15;;;5.53;;
72284;SDS011;60220;53.552;10.092;2022-12-20T03:04:11;8.70;;;5.40;;
72284;SDS011;60220;53.552;10.092;2022-12-20T03:06:39;10.55;;;6.10;;
72284;SDS011;60220;53.552;10.092;2022-12-20T03:09:26;7.57;;;5.28;;
72284;SDS011;60220;53.552;10.092;2022-12-20T03:11:55;8.85;;;5.55;;
72284;SDS011;60220;53.552;10.092;2022-12-20T03:14:22;8.05;;;4.88;;
72284;SDS011;60220;53.552;10.092;2022-12-20T03:16:52;8.65;;;5.28;;
72284;SDS011;60220;53.552;10.092;2022-12-20T03:19:23;9.45;;;5.20;;
72284;SDS011;60220;53.552;10.092;2022-12-20T03:21:54;11.47;;;5.40;;
72284;SDS011;60220;53.552;10.092;2022-12-20T03:24:25;11.27;;;5.40;;
72284;SDS011;60220;53.552;10.092;2022-12-20T03:27:01;11.50;;;4.97;;
72284;SDS011;60220;53.552;10.092;2022-12-20T03:29:32;13.13;;;5.40;;
72284;SDS011;60220;53.552;10.092;2022-12-20T03:32:01;7.70;;;5.13;;
72284;SDS011;60220;53.552;10.092;2022-12-20T03:34:30;6.35;;;4.50;;
72284;SDS011;60220;53.552;10.092;2022-12-20T03:36:59;8.30;;;4.95;;
72284;SDS011;60220;53.552;10.092;2022-12-20T03:39:28;9.07;;;5.43;;
72284;SDS011;60220;53.552;10.092;2022-12-20T03:41:58;8.45;;;5.60;;
72284;SDS011;60220;53.552;10.092;2022-12-20T03:44:25;10.00;;;5.80;;
72284;SDS011;60220;53.552;10.092;2022-12-20T03:46:55;9.10;;;4.95;;
72284;SDS011;60220;53.552;10.092;2022-12-20T03:49:24;8.27;;;5.38;;
72284;SDS011;60220;53.552;10.092;2022-12-20T03:51:52;8.15;;;4.57;;
72284;SDS011;60220;53.552;10.092;2022-12-20T03:54:22;7.90;;;4.95;;
72284;SDS011;60220;53.552;10.092;2022-12-20T03:56:58;6.22;;;4.97;;
72284;SDS011;60220;53.552;10.092;2022-12-20T03:59:24;7.90;;;5.45;;
72284;SDS011;60220;53.552;10.092;2022-12-20T04:01:54;8.40;;;4.82;;
72284;SDS011;60220;53.552;10.092;2022-12-20T04:04:23;10.45;;;5.07;;
72284;SDS011;60220;53.552;10.092;2022-12-20T04:06:50;7.95;;;4.70;;
72284;SDS011;60220;53.552;10.092;2022-12-20T04:09:19;10.35;;;4.70;;
72284;SDS011;60220;53.552;10.092;2022-12-20T04:11:46;9.40;;;5.15;;
72284;SDS011;60220;53.552;10.092;2022-12-20T04:14:20;9.95;;;4.55;;
72284;SDS011;60220;53.552;10.092;2022-12-20T04:16:55;11.48;;;5.28;;
72284;SDS011;60220;53.552;10.092;2022-12-20T04:19:21;10.40;;;5.28;;
72284;SDS011;60220;53.552;10.092;2022-12-20T04:21:48;12.57;;;5.28;;
72284;SDS011;60220;53.552;10.092;2022-12-20T04:24:20;7.85;;;5.20;;
72284;SDS011;60220;53.552;10.092;2022-12-20T04:26:46;9.02;;;5.20;;
72284;SDS011;60220;53.552;10.092;2022-12-20T04:29:16;10.40;;;5.38;;
72284;SDS011;60220;53.552;10.092;2022-12-20T04:31:43;10.07;;;6.07;;
72284;SDS011;60220;53.552;10.092;2022-12-20T04:34:15;9.80;;;5.07;;
72284;SDS011;60220;53.552;10.092;2022-12-20T04:36:46;7.75;;;5.50;;
72284;SDS011;60220;53.552;10.092;2022-12-20T04:39:21;10.38;;;5.63;;
72284;SDS011;60220;53.552;10.092;2022-12-20T04:41:54;7.65;;;5.25;;
72284;SDS011;60220;53.552;10.092;2022-12-20T04:44:20;9.50;;;5.80;;
72284;SDS011;60220;53.552;10.092;2022-12-20T04:46:50;8.52;;;5.50;;
72284;SDS011;60220;53.552;10.092;2022-12-20T04:49:17;9.32;;;5.80;;
72284;SDS011;60220;53.552;10.092;2022-12-20T04:51:49;9.23;;;6.28;;
72284;SDS011;60220;53.552;10.092;2022-12-20T04:54:19;11.40;;;5.60;;
72284;SDS011;60220;53.552;10.092;2022-12-20T04:56:49;11.82;;;6.60;;
72284;SDS011;60220;53.552;10.092;2022-12-20T04:59:15;10.27;;;6.15;;
72284;SDS011;60220;53.552;10.092;2022-12-20T05:01:42;9.60;;;6.30;;
72284;SDS011;60220;53.552;10.092;2022-12-20T05:04:11;10.45;;;6.47;;
72284;SDS011;60220;53.552;10.092;2022-12-20T05:06:40;9.80;;;6.07;;
72284;SDS011;60220;53.552;10.092;2022-12-20T05:09:13;16.10;;;6.55;;
72284;SDS011;60220;53.552;10.092;2022-12-20T05:11:42;11.07;;;6.13;;
72284;SDS011;60220;53.552;10.092;2022-12-20T05:14:11;11.20;;;6.13;;
72284;SDS011;60220;53.552;10.092;2022-12-20T05:16:37;10.98;;;6.30;;
72284;SDS011;60220;53.552;10.092;2022-12-20T05:19:04;9.07;;;6.00;;
72284;SDS011;60220;53.552;10.092;2022-12-20T05:21:31;12.80;;;6.20;;
72284;SDS011;60220;53.552;10.092;2022-12-20T05:24:18;12.85;;;6.97;;
72284;SDS011;60220;53.552;10.092;2022-12-20T05:29:30;12.02;;;5.97;;
72284;SDS011;60220;53.552;10.092;2022-12-20T05:31:57;10.30;;;6.30;;
72284;SDS011;60220;53.552;10.092;2022-12-20T05:34:24;10.90;;;6.28;;
72284;SDS011;60220;53.552;10.092;2022-12-20T05:36:51;13.55;;;6.30;;
72284;SDS011;60220;53.552;10.092;2022-12-20T05:39:17;10.68;;;5.85;;
72284;SDS011;60220;53.552;10.092;2022-12-20T05:41:48;12.93;;;7.25;;
72284;SDS011;60220;53.552;10.092;2022-12-20T05:44:17;16.17;;;6.40;;
72284;SDS011;60220;53.552;10.092;2022-12-20T05:46:50;12.05;;;6.68;;
72284;SDS011;60220;53.552;10.092;2022-12-20T05:49:16;11.70;;;6.95;;
72284;SDS011;60220;53.552;10.092;2022-12-20T05:51:45;15.07;;;7.35;;
72284;SDS011;60220;53.552;10.092;2022-12-20T05:54:12;12.00;;;7.28;;
72284;SDS011;60220;53.552;10.092;2022-12-20T05:56:41;13.07;;;8.18;;
72284;SDS011;60220;53.552;10.092;2022-12-20T05:59:07;11.25;;;7.68;;
72284;SDS011;60220;53.552;10.092;2022-12-20T06:01:34;14.65;;;7.18;;
72284;SDS011;60220;53.552;10.092;2022-12-20T06:04:02;15.48;;;8.30;;
72284;SDS011;60220;53.552;10.092;2022-12-20T06:06:32;15.10;;;7.82;;
72284;SDS011;60220;53.552;10.092;2022-12-20T06:08:58;17.05;;;8.85;;
72284;SDS011;60220;53.552;10.092;2022-12-20T06:11:25;14.30;;;8.15;;
72284;SDS011;60220;53.552;10.092;2022-12-20T06:13:54;14.18;;;7.38;;
72284;SDS011;60220;53.552;10.092;2022-12-20T06:16:20;16.45;;;8.73;;
72284;SDS011;60220;53.552;10.092;2022-12-20T06:18:49;15.55;;;7.68;;
72284;SDS011;60220;53.552;10.092;2022-12-20T06:21:17;12.57;;;6.97;;
72284;SDS011;60220;53.552;10.092;2022-12-20T06:23:44;12.73;;;7.60;;
72284;SDS011;60220;53.552;10.092;2022-12-20T06:26:11;20.40;;;8.13;;
72284;SDS011;60220;53.552;10.092;2022-12-20T06:28:40;20.08;;;8.02;;
72284;SDS011;60220;53.552;10.092;2022-12-20T06:31:07;15.10;;;7.63;;
72284;SDS011;60220;53.552;10.092;2022-12-20T06:33:37;14.00;;;7.82;;
72284;SDS011;60220;53.552;10.092;2022-12-20T06:36:04;14.85;;;7.32;;
72284;SDS011;60220;53.552;10.092;2022-12-20T06:38:32;13.30;;;7.00;;
72284;SDS011;60220;53.552;10.092;2022-12-20T06:40:59;11.57;;;7.78;;
72284;SDS011;60220;53.552;10.092;2022-12-20T06:43:26;16.92;;;8.40;;
72284;SDS011;60220;53.552;10.092;2022-12-20T06:45:52;18.52;;;7.85;;
72284;SDS011;60220;53.552;10.092;2022-12-20T06:48:19;12.10;;;7.10;;
72284;SDS011;60220;53.552;10.092;2022-12-20T06:50:46;15.48;;;8.32;;
72284;SDS011;60220;53.552;10.092;2022-12-20T06:53:13;19.98;;;8.32;;
72284;SDS011;60220;53.552;10.092;2022-12-20T06:55:41;12.93;;;7.40;;
72284;SDS011;60220;53.552;10.092;2022-12-20T06:58:10;15.02;;;7.53;;
72284;SDS011;60220;53.552;10.092;2022-12-20T07:00:37;15.13;;;8.40;;
72284;SDS011;60220;53.552;10.092;2022-12-20T07:03:04;14.50;;;7.90;;
72284;SDS011;60220;53.552;10.092;2022-12-20T07:05:31;14.55;;;8.18;;
72284;SDS011;60220;53.552;10.092;2022-12-20T07:07:59;17.58;;;8.15;;
72284;SDS011;60220;53.552;10.092;2022-12-20T07:10:29;15.02;;;7.53;;
72284;SDS011;60220;53.552;10.092;2022-12-20T07:12:57;13.57;;;8.65;;
72284;SDS011;60220;53.552;10.092;2022-12-20T07:15:24;20.83;;;9.10;;
72284;SDS011;60220;53.552;10.092;2022-12-20T07:17:50;13.45;;;8.13;;
72284;SDS011;60220;53.552;10.092;2022-12-20T07:20:17;15.00;;;8.57;;
72284;SDS011;60220;53.552;10.092;2022-12-20T07:22:46;14.07;;;7.78;;
72284;SDS011;60220;53.552;10.092;2022-12-20T07:25:13;13.23;;;7.88;;
72284;SDS011;60220;53.552;10.092;2022-12-20T07:27:40;19.30;;;8.77;;
72284;SDS011;60220;53.552;10.092;2022-12-20T07:30:10;14.70;;;8.85;;
72284;SDS011;60220;53.552;10.092;2022-12-20T07:32:37;18.98;;;8.90;;
72284;SDS011;60220;53.552;10.092;2022-12-20T07:35:04;19.25;;;8.57;;
72284;SDS011;60220;53.552;10.092;2022-12-20T07:37:31;19.08;;;9.63;;
72284;SDS011;60220;53.552;10.092;2022-12-20T07:39:58;14.18;;;8.57;;
72284;SDS011;60220;53.552;10.092;2022-12-20T07:42:24;17.95;;;9.23;;
72284;SDS011;60220;53.552;10.092;2022-12-20T07:44:51;19.42;;;8.60;;
72284;SDS011;60220;53.552;10.092;2022-12-20T07:47:19;18.83;;;9.90;;
72284;SDS011;60220;53.552;10.092;2022-12-20T07:49:46;17.70;;;9.63;;
72284;SDS011;60220;53.552;10.092;2022-12-20T07:52:13;18.95;;;9.35;;
72284;SDS011;60220;53.552;10.092;2022-12-20T07:54:45;18.33;;;8.88;;
72284;SDS011;60220;53.552;10.092;2022-12-20T07:57:15;15.18;;;9.18;;
72284;SDS011;60220;53.552;10.092;2022-12-20T07:59:46;19.80;;;10.23;;
72284;SDS011;60220;53.552;10.092;2022-12-20T08:02:17;19.17;;;10.05;;
72284;SDS011;60220;53.552;10.092;2022-12-20T08:04:52;18.27;;;9.10;;
72284;SDS011;60220;53.552;10.092;2022-12-20T08:07:23;17.25;;;9.32;;
72284;SDS011;60220;53.552;10.092;2022-12-20T08:09:50;19.58;;;9.15;;
72284;SDS011;60220;53.552;10.092;2022-12-20T08:12:16;23.17;;;11.15;;
72284;SDS011;60220;53.552;10.092;2022-12-20T08:14:45;21.85;;;9.80;;
72284;SDS011;60220;53.552;10.092;2022-12-20T08:17:14;22.90;;;11.50;;
72284;SDS011;60220;53.552;10.092;2022-12-20T08:19:42;21.10;;;10.20;;
72284;SDS011;60220;53.552;10.092;2022-12-20T08:22:09;20.05;;;9.07;;
72284;SDS011;60220;53.552;10.092;2022-12-20T08:24:35;16.55;;;9.70;;
72284;SDS011;60220;53.552;10.092;2022-12-20T08:27:04;22.63;;;10.80;;
72284;SDS011;60220;53.552;10.092;2022-12-20T08:29:31;26.55;;;10.60;;
72284;SDS011;60220;53.552;10.092;2022-12-20T08:31:57;18.73;;;9.18;;
72284;SDS011;60220;53.552;10.092;2022-12-20T08:34:25;17.88;;;10.30;;
72284;SDS011;60220;53.552;10.092;2022-12-20T08:36:53;17.90;;;10.48;;
72284;SDS011;60220;53.552;10.092;2022-12-20T08:39:19;20.30;;;9.93;;
72284;SDS011;60220;53.552;10.092;2022-12-20T08:41:48;18.70;;;10.70;;
72284;SDS011;60220;53.552;10.092;2022-12-20T08:44:15;19.52;;;10.20;;
72284;SDS011;60220;53.552;10.092;2022-12-20T08:46:44;16.80;;;10.10;;
72284;SDS011;60220;53.552;10.092;2022-12-20T08:49:11;16.60;;;9.90;;
72284;SDS011;60220;53.552;10.092;2022-12-20T08:51:38;17.92;;;9.07;;
72284;SDS011;60220;53.552;10.092;2022-12-20T08:54:08;20.10;;;10.00;;
72284;SDS011;60220;53.552;10.092;2022-12-20T08:56:35;13.95;;;9.45;;
72284;SDS011;60220;53.552;10.092;2022-12-20T08:59:02;15.25;;;9.55;;
72284;SDS011;60220;53.552;10.092;2022-12-20T09:01:29;16.42;;;10.38;;
72284;SDS011;60220;53.552;10.092;2022-12-20T09:03:57;18.90;;;8.27;;
72284;SDS011;60220;53.552;10.092;2022-12-20T09:06:24;27.23;;;15.48;;
72284;SDS011;60220;53.552;10.092;2022-12-20T09:08:53;33.03;;;18.30;;
72284;SDS011;60220;53.552;10.092;2022-12-20T09:11:22;15.30;;;9.38;;
72284;SDS011;60220;53.552;10.092;2022-12-20T09:13:51;16.65;;;9.80;;
72284;SDS011;60220;53.552;10.092;2022-12-20T09:16:20;18.30;;;9.50;;
72284;SDS011;60220;53.552;10.092;2022-12-20T09:18:48;16.40;;;9.00;;
72284;SDS011;60220;53.552;10.092;2022-12-20T09:21:18;14.30;;;8.05;;
72284;SDS011;60220;53.552;10.092;2022-12-20T09:23:46;14.18;;;9.52;;
72284;SDS011;60220;53.552;10.092;2022-12-20T09:26:15;18.20;;;9.85;;
72284;SDS011;60220;53.552;10.092;2022-12-20T09:28:47;14.65;;;8.88;;
72284;SDS011;60220;53.552;10.092;2022-12-20T09:31:16;17.45;;;8.40;;
72284;SDS011;60220;53.552;10.092;2022-12-20T09:33:44;16.40;;;8.10;;
72284;SDS011;60220;53.552;10.092;2022-12-20T09:36:12;15.55;;;8.35;;
72284;SDS011;60220;53.552;10.092;2022-12-20T09:38:41;14.85;;;9.23;;
72284;SDS011;60220;53.552;10.092;2022-12-20T09:41:15;16.13;;;8.50;;
72284;SDS011;60220;53.552;10.092;2022-12-20T09:43:53;13.50;;;8.07;;
72284;SDS011;60220;53.552;10.092;2022-12-20T09:46:20;12.55;;;7.75;;
72284;SDS011;60220;53.552;10.092;2022-12-20T09:48:48;17.92;;;8.30;;
72284;SDS011;60220;53.552;10.092;2022-12-20T09:51:21;14.52;;;7.68;;
72284;SDS011;60220;53.552;10.092;2022-12-20T09:54:03;14.00;;;8.32;;
72284;SDS011;60220;53.552;10.092;2022-12-20T09:56:40;11.63;;;7.70;;
72284;SDS011;60220;53.552;10.092;2022-12-20T09:59:11;13.05;;;8.10;;
72284;SDS011;60220;53.552;10.092;2022-12-20T10:01:42;14.13;;;6.80;;
72284;SDS011;60220;53.552;10.092;2022-12-20T10:04:14;16.17;;;7.72;;
72284;SDS011;60220;53.552;10.092;2022-12-20T10:06:47;14.10;;;7.63;;
72284;SDS011;60220;53.552;10.092;2022-12-20T10:09:35;17.08;;;8.07;;
72284;SDS011;60220;53.552;10.092;2022-12-20T10:12:14;15.05;;;7.82;;
72284;SDS011;60220;53.552;10.092;2022-12-20T10:14:59;12.25;;;7.38;;
72284;SDS011;60220;53.552;10.092;2022-12-20T10:17:36;13.82;;;8.20;;
72284;SDS011;60220;53.552;10.092;2022-12-20T10:20:21;13.02;;;7.60;;
72284;SDS011;60220;53.552;10.092;2022-12-20T10:23:01;16.70;;;8.20;;
72284;SDS011;60220;53.552;10.092;2022-12-20T10:25:37;13.80;;;7.65;;
72284;SDS011;60220;53.552;10.092;2022-12-20T10:28:09;12.50;;;7.55;;
72284;SDS011;60220;53.552;10.092;2022-12-20T10:30:40;15.37;;;8.03;;
72284;SDS011;60220;53.552;10.092;2022-12-20T10:33:12;14.70;;;7.70;;
72284;SDS011;60220;53.552;10.092;2022-12-20T10:35:43;12.45;;;7.70;;
72284;SDS011;60220;53.552;10.092;2022-12-20T10:38:11;15.70;;;7.47;;
72284;SDS011;60220;53.552;10.092;2022-12-20T10:40:42;11.65;;;7.20;;
72284;SDS011;60220;53.552;10.092;2022-12-20T10:43:14;11.93;;;7.13;;
72284;SDS011;60220;53.552;10.092;2022-12-20T10:45:53;12.88;;;8.07;;
72284;SDS011;60220;53.552;10.092;2022-12-20T10:48:25;12.65;;;7.03;;
72284;SDS011;60220;53.552;10.092;2022-12-20T10:53:24;15.13;;;7.38;;
72284;SDS011;60220;53.552;10.092;2022-12-20T10:55:51;13.15;;;7.72;;
72284;SDS011;60220;53.552;10.092;2022-12-20T10:58:28;13.13;;;7.65;;
72284;SDS011;60220;53.552;10.092;2022-12-20T11:01:09;14.50;;;8.20;;
72284;SDS011;60220;53.552;10.092;2022-12-20T11:03:51;10.75;;;6.82;;
72284;SDS011;60220;53.552;10.092;2022-12-20T11:06:20;14.15;;;7.13;;
72284;SDS011;60220;53.552;10.092;2022-12-20T11:08:48;14.98;;;8.00;;
72284;SDS011;60220;53.552;10.092;2022-12-20T11:11:17;15.15;;;7.45;;
72284;SDS011;60220;53.552;10.092;2022-12-20T11:13:46;15.05;;;7.85;;
72284;SDS011;60220;53.552;10.092;2022-12-20T11:16:32;15.13;;;7.80;;
72284;SDS011;60220;53.552;10.092;2022-12-20T11:21:58;10.85;;;6.72;;
72284;SDS011;60220;53.552;10.092;2022-12-20T11:24:34;9.45;;;7.05;;
72284;SDS011;60220;53.552;10.092;2022-12-20T11:27:15;13.27;;;6.47;;
72284;SDS011;60220;53.552;10.092;2022-12-20T11:29:54;14.05;;;6.45;;
72284;SDS011;60220;53.552;10.092;2022-12-20T11:32:34;10.07;;;6.45;;
72284;SDS011;60220;53.552;10.092;2022-12-20T11:35:13;9.40;;;5.15;;
72284;SDS011;60220;53.552;10.092;2022-12-20T11:37:45;9.43;;;5.80;;
72284;SDS011;60220;53.552;10.092;2022-12-20T11:40:23;11.38;;;5.85;;
72284;SDS011;60220;53.552;10.092;2022-12-20T11:45:56;8.50;;;5.50;;
72284;SDS011;60220;53.552;10.092;2022-12-20T11:48:42;11.05;;;5.43;;
72284;SDS011;60220;53.552;10.092;2022-12-20T11:51:21;14.63;;;6.47;;
72284;SDS011;60220;53.552;10.092;2022-12-20T11:53:53;8.90;;;5.93;;
72284;SDS011;60220;53.552;10.092;2022-12-20T11:56:29;13.07;;;5.88;;
72284;SDS011;60220;53.552;10.092;2022-12-20T11:59:01;11.18;;;5.80;;
72284;SDS011;60220;53.552;10.092;2022-12-20T12:01:34;8.10;;;5.75;;
72284;SDS011;60220;53.552;10.092;2022-12-20T12:04:08;8.18;;;4.60;;
72284;SDS011;60220;53.552;10.092;2022-12-20T12:09:12;10.30;;;5.65;;
72284;SDS011;60220;53.552;10.092;2022-12-20T12:11:46;12.18;;;5.53;;
72284;SDS011;60220;53.552;10.092;2022-12-20T12:14:21;6.65;;;5.13;;
72284;SDS011;60220;53.552;10.092;2022-12-20T12:16:56;10.88;;;5.30;;
72284;SDS011;60220;53.552;10.092;2022-12-20T12:19:34;11.75;;;5.60;;
72284;SDS011;60220;53.552;10.092;2022-12-20T12:22:08;9.35;;;5.30;;
72284;SDS011;60220;53.552;10.092;2022-12-20T12:24:41;11.68;;;5.53;;
72284;SDS011;60220;53.552;10.092;2022-12-20T12:27:20;8.98;;;5.60;;
72284;SDS011;60220;53.552;10.092;2022-12-20T12:29:49;8.68;;;4.95;;
72284;SDS011;60220;53.552;10.092;2022-12-20T12:32:18;9.85;;;5.10;;
72284;SDS011;60220;53.552;10.092;2022-12-20T12:37:35;11.88;;;5.15;;
72284;SDS011;60220;53.552;10.092;2022-12-20T12:46:21;6.88;;;4.53;;
72284;SDS011;60220;53.552;10.092;2022-12-20T12:48:54;6.75;;;4.63;;
72284;SDS011;60220;53.552;10.092;2022-12-20T12:51:27;6.45;;;4.03;;
72284;SDS011;60220;53.552;10.092;2022-12-20T12:54:11;9.43;;;5.15;;
72284;SDS011;60220;53.552;10.092;2022-12-20T12:56:43;10.30;;;4.80;;
72284;SDS011;60220;53.552;10.092;2022-12-20T12:59:21;9.63;;;5.18;;
72284;SDS011;60220;53.552;10.092;2022-12-20T13:01:50;8.73;;;4.95;;
72284;SDS011;60220;53.552;10.092;2022-12-20T13:04:25;9.82;;;5.13;;
72284;SDS011;60220;53.552;10.092;2022-12-20T13:09:37;11.20;;;4.95;;
72284;SDS011;60220;53.552;10.092;2022-12-20T13:18:22;10.57;;;5.63;;
72284;SDS011;60220;53.552;10.092;2022-12-20T13:27:00;11.75;;;5.68;;
72284;SDS011;60220;53.552;10.092;2022-12-20T13:29:32;7.97;;;5.45;;
72284;SDS011;60220;53.552;10.092;2022-12-20T13:32:00;8.75;;;4.95;;
72284;SDS011;60220;53.552;10.092;2022-12-20T13:34:37;9.65;;;4.90;;
72284;SDS011;60220;53.552;10.092;2022-12-20T13:37:24;8.90;;;5.38;;
72284;SDS011;60220;53.552;10.092;2022-12-20T13:39:56;14.63;;;5.68;;
72284;SDS011;60220;53.552;10.092;2022-12-20T13:42:33;14.18;;;5.53;;
72284;SDS011;60220;53.552;10.092;2022-12-20T13:45:03;9.55;;;4.88;;
72284;SDS011;60220;53.552;10.092;2022-12-20T13:47:37;8.27;;;5.37;;
72284;SDS011;60220;53.552;10.092;2022-12-20T13:50:22;9.15;;;5.25;;
72284;SDS011;60220;53.552;10.092;2022-12-20T13:53:14;9.40;;;5.03;;
72284;SDS011;60220;53.552;10.092;2022-12-20T13:55:44;9.95;;;5.75;;
72284;SDS011;60220;53.552;10.092;2022-12-20T13:58:14;13.38;;;5.88;;
72284;SDS011;60220;53.552;10.092;2022-12-20T14:00:42;11.10;;;6.18;;
72284;SDS011;60220;53.552;10.092;2022-12-20T14:03:16;10.55;;;5.43;;
72284;SDS011;60220;53.552;10.092;2022-12-20T14:05:50;9.90;;;5.80;;
72284;SDS011;60220;53.552;10.092;2022-12-20T14:08:21;13.32;;;5.95;;
72284;SDS011;60220;53.552;10.092;2022-12-20T14:10:53;11.25;;;4.93;;
72284;SDS011;60220;53.552;10.092;2022-12-20T14:13:21;13.95;;;5.15;;
72284;SDS011;60220;53.552;10.092;2022-12-20T14:15:52;10.35;;;5.28;;
72284;SDS011;60220;53.552;10.092;2022-12-20T14:18:20;12.25;;;6.78;;
72284;SDS011;60220;53.552;10.092;2022-12-20T14:20:49;13.20;;;5.18;;
72284;SDS011;60220;53.552;10.092;2022-12-20T14:23:19;9.50;;;5.93;;
72284;SDS011;60220;53.552;10.092;2022-12-20T14:25:49;11.98;;;6.20;;
72284;SDS011;60220;53.552;10.092;2022-12-20T14:28:22;14.18;;;5.85;;
72284;SDS011;60220;53.552;10.092;2022-12-20T14:30:54;10.75;;;5.95;;
72284;SDS011;60220;53.552;10.092;2022-12-20T14:33:29;9.23;;;5.45;;
72284;SDS011;60220;53.552;10.092;2022-12-20T14:36:06;8.40;;;5.55;;
72284;SDS011;60220;53.552;10.092;2022-12-20T14:38:35;10.30;;;5.60;;
72284;SDS011;60220;53.552;10.092;2022-12-20T14:41:04;12.50;;;6.68;;
72284;SDS011;60220;53.552;10.092;2022-12-20T14:43:55;10.32;;;5.85;;
72284;SDS011;60220;53.552;10.092;2022-12-20T14:46:23;8.55;;;5.85;;
72284;SDS011;60220;53.552;10.092;2022-12-20T14:49:03;11.70;;;6.07;;
72284;SDS011;60220;53.552;10.092;2022-12-20T14:51:35;13.98;;;6.55;;
72284;SDS011;60220;53.552;10.092;2022-12-20T14:54:02;13.93;;;6.47;;
72284;SDS011;60220;53.552;10.092;2022-12-20T14:56:29;12.75;;;6.32;;
72284;SDS011;60220;53.552;10.092;2022-12-20T14:59:04;14.85;;;6.45;;
72284;SDS011;60220;53.552;10.092;2022-12-20T15:01:38;14.35;;;5.88;;
72284;SDS011;60220;53.552;10.092;2022-12-20T15:04:18;10.93;;;6.15;;
72284;SDS011;60220;53.552;10.092;2022-12-20T15:09:17;13.82;;;6.90;;
72284;SDS011;60220;53.552;10.092;2022-12-20T15:11:44;10.45;;;6.43;;
72284;SDS011;60220;53.552;10.092;2022-12-20T15:14:18;13.07;;;6.35;;
72284;SDS011;60220;53.552;10.092;2022-12-20T15:16:53;13.95;;;7.28;;
72284;SDS011;60220;53.552;10.092;2022-12-20T15:19:20;12.90;;;7.55;;
72284;SDS011;60220;53.552;10.092;2022-12-20T15:21:49;15.55;;;7.43;;
72284;SDS011;60220;53.552;10.092;2022-12-20T15:24:18;18.55;;;7.95;;
72284;SDS011;60220;53.552;10.092;2022-12-20T15:26:49;11.82;;;6.75;;
72284;SDS011;60220;53.552;10.092;2022-12-20T15:29:20;11.88;;;6.95;;